Time;durP1;ratioP1;P1;durP2;ratioP2;P2;SDS_P1;SDS_P2;PMS_P1;PMS_P2;Temp;Humidity;BMP_temperature;BMP_pressure;BME280_temperature;BME280_humidity;BME280_pressure;Samples;Min_cycle;Max_cycle;Signal;HPM_P1;HPM_P2
2021/08/31 00:00:20;;;;;;;7.68;6.45;;;;;;;15.20;87.77;100788.44;6222594;23;20035;-83
2021/08/31 00:02:47;;;;;;;8.80;6.47;;;;;;;15.18;88.17;100792.16;6219613;23;20039;-82
2021/08/31 00:05:14;;;;;;;8.57;6.70;;;;;;;15.17;88.31;100787.78;6221440;23;20017;-82
2021/08/31 00:07:42;;;;;;;9.30;7.03;;;;;;;15.18;87.67;100794.81;6219177;23;20107;-82
2021/08/31 00:10:10;;;;;;;7.75;6.70;;;;;;;15.18;87.46;100789.50;6221577;23;20095;-83
2021/08/31 00:12:41;;;;;;;6.97;6.07;;;;;;;15.17;87.76;100801.09;6222658;23;20025;-83
2021/08/31 00:15:09;;;;;;;6.78;6.05;;;;;;;15.14;88.07;100798.63;6223794;23;20028;-82
2021/08/31 00:17:36;;;;;;;7.43;6.65;;;;;;;15.14;88.22;100793.28;6230013;23;20072;-83
2021/08/31 00:20:06;;;;;;;8.40;6.38;;;;;;;15.12;88.32;100793.38;6229263;23;20076;-83
2021/08/31 00:22:35;;;;;;;8.02;6.78;;;;;;;15.12;88.23;100805.84;6231893;23;20016;-82
2021/08/31 00:25:06;;;;;;;7.82;6.90;;;;;;;15.09;88.37;100807.78;6201070;23;20017;-83
2021/08/31 00:27:35;;;;;;;9.00;7.10;;;;;;;15.05;88.51;100814.22;6224588;23;20114;-83
2021/08/31 00:30:03;;;;;;;7.85;6.70;;;;;;;15.05;88.36;100816.91;6222999;23;20331;-83
2021/08/31 00:32:30;;;;;;;9.15;6.85;;;;;;;15.07;88.36;100819.47;6223454;23;20020;-83
2021/08/31 00:34:57;;;;;;;8.35;6.90;;;;;;;15.08;88.26;100816.72;6224312;23;20111;-83
2021/08/31 00:37:23;;;;;;;8.60;6.78;;;;;;;15.13;87.79;100810.22;6223159;23;20075;-83
2021/08/31 00:39:50;;;;;;;11.35;6.97;;;;;;;15.15;87.89;100816.34;6224398;23;20005;-83
2021/08/31 00:42:16;;;;;;;9.73;7.00;;;;;;;15.11;88.06;100815.66;6197854;23;20031;-83
2021/08/31 00:44:43;;;;;;;9.35;6.28;;;;;;;15.13;88.09;100820.91;6225345;23;20020;-83
2021/08/31 00:47:10;;;;;;;9.23;6.95;;;;;;;15.13;88.28;100816.44;6224133;23;20040;-83
2021/08/31 00:49:36;;;;;;;9.30;6.95;;;;;;;15.11;87.93;100825.50;6224954;23;20017;-83
2021/08/31 00:52:03;;;;;;;7.78;6.63;;;;;;;15.09;88.30;100821.09;6223301;23;20028;-83
2021/08/31 00:54:31;;;;;;;8.27;7.03;;;;;;;15.09;88.03;100830.91;6202629;23;20016;-83
2021/08/31 00:57:00;;;;;;;9.10;6.95;;;;;;;15.04;88.13;100825.84;6231463;23;20084;-83
2021/08/31 00:59:26;;;;;;;8.10;6.57;;;;;;;14.98;88.27;100820.84;6233535;23;20068;-83
2021/08/31 01:01:53;;;;;;;9.32;6.95;;;;;;;15.00;88.77;100821.63;6235599;23;20016;-83
2021/08/31 01:04:23;;;;;;;9.98;7.03;;;;;;;14.99;88.78;100830.59;6208585;23;20051;-83
2021/08/31 01:06:52;;;;;;;9.18;7.03;;;;;;;14.99;88.75;100827.06;6232498;23;20021;-82
2021/08/31 01:09:22;;;;;;;9.32;6.68;;;;;;;14.93;88.58;100824.75;6228133;23;20044;-83
2021/08/31 01:11:49;;;;;;;;;;;;;;;14.95;88.93;100833.53;6223328;23;20099;-82
2021/08/31 01:14:18;;;;;;;9.25;7.22;;;;;;;14.86;89.03;100826.06;6222429;23;19920;-83
2021/08/31 01:16:47;;;;;;;8.10;6.80;;;;;;;14.82;89.38;100830.69;6196049;23;20538;-83
2021/08/31 01:19:14;;;;;;;8.65;7.07;;;;;;;14.80;89.46;100835.25;6221671;23;20095;-84
2021/08/31 01:21:41;;;;;;;9.35;7.65;;;;;;;14.79;90.13;100830.91;6224064;23;20051;-83
2021/08/31 01:24:07;;;;;;;9.88;7.20;;;;;;;14.77;89.95;100835.47;6197712;23;20016;-83
2021/08/31 01:26:34;;;;;;;8.05;6.57;;;;;;;14.76;89.74;100841.72;6224238;23;20743;-83
2021/08/31 01:29:03;;;;;;;8.65;7.40;;;;;;;14.74;90.23;100840.94;6223766;23;20033;-83
2021/08/31 01:31:29;;;;;;;10.38;6.85;;;;;;;14.71;90.11;100833.13;6221047;23;20031;-83
2021/08/31 01:33:56;;;;;;;10.35;7.15;;;;;;;14.68;90.20;100842.16;6222064;23;20032;-85
2021/08/31 01:36:26;;;;;;;10.40;7.32;;;;;;;14.66;90.47;100846.72;6221951;23;20023;-83
2021/08/31 01:38:57;;;;;;;8.55;7.47;;;;;;;14.66;90.31;100852.03;6222507;23;20715;-83
2021/08/31 01:41:25;;;;;;;9.95;7.03;;;;;;;14.64;90.67;100853.94;6221757;23;20378;-83
2021/08/31 01:43:52;;;;;;;9.38;7.40;;;;;;;14.64;91.17;100859.25;6224899;23;20113;-83
2021/08/31 01:46:19;;;;;;;9.43;7.45;;;;;;;14.62;90.89;100855.84;6225624;23;20095;-83
2021/08/31 01:48:46;;;;;;;7.68;6.65;;;;;;;14.63;90.78;100854.03;6224673;23;20635;-83
2021/08/31 01:51:12;;;;;;;8.88;7.00;;;;;;;14.63;90.83;100854.03;6223721;23;20096;-83
2021/08/31 01:53:39;;;;;;;9.00;7.18;;;;;;;14.61;90.90;100855.94;6224110;23;20104;-83
2021/08/31 01:56:06;;;;;;;8.02;6.32;;;;;;;14.56;91.08;100850.00;6226728;23;20032;-83
2021/08/31 01:58:33;;;;;;;9.00;7.40;;;;;;;14.57;90.77;100857.03;6235029;23;20064;-83
2021/08/31 02:00:59;;;;;;;10.02;7.60;;;;;;;14.56;90.95;100853.50;6238713;23;20039;-83
2021/08/31 02:03:26;;;;;;;9.65;7.50;;;;;;;14.52;90.35;100848.44;6240311;23;20027;-83
2021/08/31 02:05:53;;;;;;;8.57;6.72;;;;;;;14.51;90.91;100838.72;6241529;23;20024;-83
2021/08/31 02:08:19;;;;;;;9.18;7.72;;;;;;;14.50;91.06;100840.53;6237276;23;20048;-82
2021/08/31 02:10:46;;;;;;;9.27;7.55;;;;;;;14.48;90.96;100838.91;6240482;23;20048;-83
2021/08/31 02:13:13;;;;;;;9.18;7.57;;;;;;;14.44;91.04;100845.34;6226721;23;20325;-83
2021/08/31 02:15:40;;;;;;;8.93;7.57;;;;;;;14.40;90.99;100839.31;6196610;23;20409;-82
2021/08/31 02:18:07;;;;;;;10.27;7.25;;;;;;;14.38;91.28;100841.19;6221483;23;20071;-82
2021/08/31 02:20:34;;;;;;;8.75;7.20;;;;;;;14.32;91.42;100838.88;6221986;23;20103;-83
2021/08/31 02:23:02;;;;;;;8.98;7.03;;;;;;;14.31;91.61;100837.16;6222350;23;20024;-82
2021/08/31 02:25:28;;;;;;;8.27;6.97;;;;;;;14.30;91.64;100844.28;6222480;23;20342;-83
2021/08/31 02:27:55;;;;;;;9.13;7.03;;;;;;;14.27;91.65;100844.44;6220391;23;20024;-82
2021/08/31 02:30:21;;;;;;;8.75;7.40;;;;;;;14.26;91.86;100844.53;6224897;23;20400;-82
2021/08/31 02:32:48;;;;;;;11.40;7.80;;;;;;;14.25;91.71;100843.66;6235307;23;20083;-82
2021/08/31 02:35:16;;;;;;;10.48;7.90;;;;;;;14.22;91.66;100843.81;6243087;23;20044;-81
2021/08/31 02:37:43;;;;;;;9.73;7.10;;;;;;;14.23;91.66;100848.22;6238558;23;20476;-81
2021/08/31 02:40:11;;;;;;;10.02;7.32;;;;;;;14.21;91.77;100844.78;6221052;23;20026;-81
2021/08/31 02:42:40;;;;;;;9.40;6.93;;;;;;;14.18;91.75;100844.94;6221661;23;20020;-81
2021/08/31 02:45:07;;;;;;;9.15;7.43;;;;;;;14.19;92.02;100845.78;6220643;23;20024;-81
2021/08/31 02:47:34;;;;;;;8.25;7.05;;;;;;;14.15;91.80;100839.81;6221726;23;20031;-81
2021/08/31 02:50:00;;;;;;;10.27;7.85;;;;;;;14.14;91.98;100839.88;6195150;23;20049;-81
2021/08/31 02:52:27;;;;;;;10.05;7.88;;;;;;;14.14;91.92;100843.41;6221888;23;20129;-81
2021/08/31 02:54:54;;;;;;;10.32;7.30;;;;;;;14.16;91.81;100844.19;6221032;23;20087;-80
2021/08/31 02:57:21;;;;;;;10.43;7.68;;;;;;;14.19;91.21;100845.78;6221164;23;20026;-81
2021/08/31 02:59:48;;;;;;;12.73;7.53;;;;;;;14.20;90.94;100843.06;6221115;23;20020;-83
2021/08/31 03:02:15;;;;;;;11.73;7.88;;;;;;;14.19;90.94;100840.47;6221063;23;20020;-84
2021/08/31 03:04:43;;;;;;;9.32;7.57;;;;;;;14.18;91.09;100844.06;6221165;23;20032;-82
2021/08/31 03:07:13;;;;;;;11.00;7.55;;;;;;;14.19;91.28;100851.13;6221385;23;20028;-83
2021/08/31 03:09:41;;;;;;;10.63;7.50;;;;;;;14.22;91.19;100849.16;6220062;23;20095;-83
2021/08/31 03:12:08;;;;;;;8.75;7.60;;;;;;;14.25;90.83;100845.47;6220764;23;20017;-84
2021/08/31 03:14:34;;;;;;;9.32;7.13;;;;;;;14.29;90.35;100853.22;6220919;23;20021;-83
2021/08/31 03:17:01;;;;;;;9.60;7.63;;;;;;;14.29;90.64;100842.56;6221424;23;20036;-84
2021/08/31 03:19:28;;;;;;;9.70;7.47;;;;;;;14.37;90.13;100856.31;6220152;23;20030;-83
2021/08/31 03:21:57;;;;;;;11.60;7.30;;;;;;;14.44;89.37;100858.66;6220693;23;20489;-83
2021/08/31 03:24:24;;;;;;;8.50;7.40;;;;;;;14.45;89.26;100863.91;6221323;23;20095;-83
2021/08/31 03:26:52;;;;;;;10.50;7.30;;;;;;;14.49;89.12;100864.59;6220353;23;20080;-83
2021/08/31 03:29:18;;;;;;;10.50;7.55;;;;;;;14.43;88.88;100856.94;6221005;23;20023;-83
2021/08/31 03:31:45;;;;;;;9.68;7.57;;;;;;;14.46;89.19;100878.09;6221101;23;20402;-83
2021/08/31 03:34:12;;;;;;;9.25;7.43;;;;;;;14.49;88.78;100873.44;6221516;23;20021;-83
2021/08/31 03:36:39;;;;;;;8.85;6.97;;;;;;;14.53;88.83;100884.78;6221677;23;20023;-82
2021/08/31 03:39:08;;;;;;;8.82;6.97;;;;;;;14.56;88.47;100884.63;6196711;23;20036;-82
2021/08/31 03:41:35;;;;;;;11.77;7.40;;;;;;;14.56;88.63;100881.97;6224238;23;20331;-82
2021/08/31 03:44:04;;;;;;;10.50;7.35;;;;;;;14.59;88.28;100882.66;6241294;23;20024;-81
2021/08/31 03:46:31;;;;;;;10.40;7.03;;;;;;;14.63;88.20;100886.03;6216771;23;20013;-80
2021/08/31 03:48:58;;;;;;;8.98;7.03;;;;;;;14.64;87.81;100890.38;6242641;23;20013;-82
2021/08/31 03:51:25;;;;;;;9.68;7.05;;;;;;;14.64;87.25;100890.38;6236287;23;20071;-83
2021/08/31 03:53:52;;;;;;;10.98;7.03;;;;;;;14.64;87.56;100893.91;6216609;23;20020;-82
2021/08/31 03:56:20;;;;;;;11.38;6.95;;;;;;;14.65;87.49;100892.09;6243315;23;20019;-82
2021/08/31 03:58:46;;;;;;;9.27;7.18;;;;;;;14.68;87.41;100897.28;6209918;23;20064;-83
2021/08/31 04:01:13;;;;;;;10.75;6.90;;;;;;;14.72;87.06;100906.81;6223361;23;20095;-82
2021/08/31 04:03:40;;;;;;;9.18;7.30;;;;;;;14.71;86.97;100911.28;6197236;23;20020;-82
2021/08/31 04:06:08;;;;;;;11.38;7.65;;;;;;;14.72;86.97;100909.50;6223287;23;20009;-82
2021/08/31 04:08:35;;;;;;;11.07;7.95;;;;;;;14.73;86.87;100903.22;6224729;23;20024;-82
2021/08/31 04:11:03;;;;;;;9.27;7.20;;;;;;;14.71;86.75;100902.44;6223454;23;20112;-82
2021/08/31 04:13:31;;;;;;;11.45;7.78;;;;;;;14.71;87.08;100910.44;6224068;23;20020;-82
2021/08/31 04:15:57;;;;;;;13.23;7.72;;;;;;;14.71;87.70;100921.09;6223299;23;20020;-82
2021/08/31 04:18:24;;;;;;;13.82;7.50;;;;;;;14.72;87.94;100912.16;6236575;23;20048;-83
2021/08/31 04:20:50;;;;;;;8.90;7.35;;;;;;;14.74;87.88;100910.28;6233017;23;20068;-82
2021/08/31 04:23:25;;;;;;;8.02;6.90;;;;;;;14.77;88.19;100918.09;6238671;23;20027;-83
2021/08/31 04:25:51;;;;;;;10.93;7.47;;;;;;;14.76;87.39;100910.19;6225273;23;20020;-82
2021/08/31 04:28:18;;;;;;;9.52;6.80;;;;;;;14.77;87.31;100919.91;6223479;23;20017;-82
2021/08/31 04:30:45;;;;;;;9.98;7.25;;;;;;;14.82;86.47;100934.69;6220744;23;20024;-82
2021/08/31 04:33:12;;;;;;;10.48;7.50;;;;;;;14.83;86.04;100941.72;6223831;23;20486;-83
2021/08/31 04:35:40;;;;;;;11.07;7.10;;;;;;;14.81;85.81;100935.63;6228333;23;20043;-83
2021/08/31 04:38:07;;;;;;;11.65;7.00;;;;;;;14.78;86.15;100941.16;6226430;23;20051;-83
2021/08/31 04:40:34;;;;;;;11.45;7.20;;;;;;;14.74;86.25;100944.91;6196077;23;20082;-83
2021/08/31 04:43:01;;;;;;;10.77;7.45;;;;;;;14.68;86.45;100942.59;6221933;23;20034;-84
2021/08/31 04:45:29;;;;;;;11.10;7.63;;;;;;;14.64;86.81;100949.03;6222602;23;20119;-83
2021/08/31 04:47:55;;;;;;;9.65;7.53;;;;;;;14.58;87.04;100944.91;6221584;23;20039;-84
2021/08/31 04:50:22;;;;;;;9.70;7.40;;;;;;;14.55;87.50;100942.41;6223398;23;20063;-83
2021/08/31 04:52:49;;;;;;;11.00;7.72;;;;;;;14.52;87.58;100945.22;6222548;23;20019;-83
2021/08/31 04:55:16;;;;;;;11.43;7.95;;;;;;;14.45;87.80;100938.53;6223803;23;20030;-83
2021/08/31 04:57:43;;;;;;;8.93;7.40;;;;;;;14.42;87.86;100943.16;6221296;23;20091;-84
2021/08/31 05:00:14;;;;;;;8.93;7.10;;;;;;;14.39;88.47;100942.34;6222490;23;20016;-84
2021/08/31 05:02:41;;;;;;;11.00;8.15;;;;;;;14.35;88.50;100935.44;6222208;23;20021;-84
2021/08/31 05:05:08;;;;;;;10.25;7.50;;;;;;;14.34;88.95;100936.41;6222604;23;20305;-84
2021/08/31 05:07:38;;;;;;;12.82;7.88;;;;;;;14.33;88.93;100944.47;6221873;23;20032;-83
2021/08/31 05:10:08;;;;;;;14.70;8.85;;;;;;;14.30;89.23;100937.53;6220492;23;20021;-84
2021/08/31 05:12:35;;;;;;;10.80;7.40;;;;;;;14.31;89.47;100941.06;6228965;23;20030;-82
2021/08/31 05:15:02;;;;;;;10.38;8.15;;;;;;;14.32;89.23;100946.25;6219781;23;20017;-83
2021/08/31 05:17:29;;;;;;;12.90;8.43;;;;;;;14.29;89.15;100949.13;6221711;23;20020;-83
2021/08/31 05:19:57;;;;;;;11.27;8.00;;;;;;;14.31;88.74;100957.91;6222449;23;20021;-82
2021/08/31 05:22:26;;;;;;;9.65;7.35;;;;;;;14.31;88.70;100960.56;6222814;23;20036;-82
2021/08/31 05:24:54;;;;;;;11.95;8.23;;;;;;;14.32;88.77;100970.25;6223484;23;20020;-83
2021/08/31 05:27:22;;;;;;;9.73;7.40;;;;;;;14.32;89.19;100972.91;6222239;23;20052;-83
2021/08/31 05:29:50;;;;;;;13.88;7.28;;;;;;;14.34;88.76;100973.69;6221121;23;20016;-84
2021/08/31 05:32:17;;;;;;;10.30;7.78;;;;;;;14.32;88.14;100970.25;6195939;23;20020;-83
2021/08/31 05:34:46;;;;;;;9.90;7.60;;;;;;;14.35;88.12;100966.56;6222762;23;20473;-84
2021/08/31 05:37:14;;;;;;;9.55;7.93;;;;;;;14.39;88.01;100981.44;6222369;23;20141;-84
2021/08/31 05:39:40;;;;;;;10.88;7.47;;;;;;;14.39;88.09;100978.78;6224479;23;20058;-83
2021/08/31 05:42:08;;;;;;;13.48;8.20;;;;;;;14.44;87.69;100978.59;6233440;23;20059;-83
2021/08/31 05:44:37;;;;;;;10.05;8.30;;;;;;;14.49;87.97;100976.50;6241375;23;20073;-83
2021/08/31 05:47:05;;;;;;;11.40;8.20;;;;;;;14.50;88.27;100983.56;6241856;23;20028;-83
2021/08/31 05:49:32;;;;;;;13.60;8.13;;;;;;;14.57;88.05;100990.28;6242169;23;20049;-83
2021/08/31 05:52:00;;;;;;;9.57;7.35;;;;;;;14.61;87.68;100992.72;6234442;23;20072;-83
2021/08/31 05:54:27;;;;;;;9.73;7.53;;;;;;;14.69;86.16;100989.63;6228349;23;20025;-83
2021/08/31 05:56:58;;;;;;;10.20;7.30;;;;;;;14.72;85.93;100994.78;6226527;23;20068;-83
2021/08/31 05:59:25;;;;;;;10.80;7.75;;;;;;;14.75;85.78;100997.31;6226390;23;20036;-83
2021/08/31 06:01:57;;;;;;;12.63;7.68;;;;;;;14.75;85.84;101002.63;6231142;23;20065;-83
2021/08/31 06:04:39;;;;;;;8.13;6.57;;;;;;;14.80;85.79;101008.56;6235935;23;20024;-85
2021/08/31 06:07:07;;;;;;;10.35;7.75;;;;;;;14.90;85.15;101004.47;6233064;23;20390;-82
2021/08/31 06:09:36;;;;;;;10.60;7.63;;;;;;;14.93;84.75;101004.28;6227378;23;20025;-83
2021/08/31 06:12:05;;;;;;;11.18;7.53;;;;;;;15.01;84.56;101002.03;6228385;23;20104;-83
2021/08/31 06:14:32;;;;;;;11.60;7.50;;;;;;;15.04;84.47;100996.53;6236733;23;20016;-83
2021/08/31 06:16:59;;;;;;;10.18;7.60;;;;;;;15.07;84.11;101004.38;6241184;23;20044;-84
2021/08/31 06:19:25;;;;;;;9.95;7.13;;;;;;;15.12;84.05;101009.44;6243188;23;20004;-84
2021/08/31 06:21:52;;;;;;;10.70;7.45;;;;;;;15.17;83.26;101002.03;6241609;23;20009;-83
2021/08/31 06:24:19;;;;;;;10.48;7.38;;;;;;;15.30;83.40;101007.53;6239172;23;20024;-84
2021/08/31 06:26:48;;;;;;;9.50;7.13;;;;;;;15.43;83.69;101003.22;6217637;23;20025;-83
2021/08/31 06:29:15;;;;;;;9.18;7.32;;;;;;;15.56;83.44;101012.31;6216978;23;20031;-84
2021/08/31 06:31:41;;;;;;;9.20;6.90;;;;;;;15.66;81.80;101015.28;6208269;23;20035;-84
2021/08/31 06:34:08;;;;;;;9.93;6.70;;;;;;;15.76;81.14;101011.13;6236239;23;20045;-83
2021/08/31 06:36:37;;;;;;;8.57;6.90;;;;;;;15.90;80.09;101016.50;6235732;23;20068;-82
2021/08/31 06:39:04;;;;;;;7.97;6.15;;;;;;;16.05;79.52;101018.28;6226378;23;20102;-84
2021/08/31 06:41:31;;;;;;;8.88;7.13;;;;;;;16.17;78.10;101016.69;6224710;23;20031;-83
2021/08/31 06:44:02;;;;;;;10.63;7.10;;;;;;;16.33;78.15;101022.81;6198050;23;20039;-84
2021/08/31 06:46:29;;;;;;;8.05;6.18;;;;;;;16.62;76.60;101017.50;6223724;23;20095;-84
2021/08/31 06:49:09;;;;;;;7.30;6.27;;;;;;;17.05;76.28;101021.03;6224323;23;20115;-84
2021/08/31 06:51:36;;;;;;;10.85;6.45;;;;;;;17.44;72.29;101017.59;6223891;23;20091;-84
2021/08/31 06:54:02;;;;;;;7.75;6.05;;;;;;;17.74;72.30;101020.97;6223448;23;20072;-83
2021/08/31 06:56:29;;;;;;;9.88;6.22;;;;;;;17.96;71.39;101016.81;6197800;23;20028;-83
2021/08/31 06:58:56;;;;;;;9.70;6.00;;;;;;;18.18;70.33;101017.06;6224087;23;20052;-83
2021/08/31 07:01:23;;;;;;;9.60;5.85;;;;;;;18.32;68.75;101019.66;6226226;23;20055;-84
2021/08/31 07:03:51;;;;;;;7.47;6.20;;;;;;;18.38;68.99;101021.06;6224904;23;20023;-83
2021/08/31 07:06:17;;;;;;;8.15;5.80;;;;;;;18.58;69.10;101024.09;6226532;23;20028;-83
2021/08/31 07:08:46;;;;;;;13.70;6.38;;;;;;;18.81;68.41;101035.03;6230829;23;20020;-83
2021/08/31 07:11:12;;;;;;;8.25;5.70;;;;;;;18.87;66.53;101031.91;6227920;23;20089;-80
2021/08/31 07:13:40;;;;;;;7.85;6.00;;;;;;;18.94;66.03;101030.50;6223199;23;20039;-84
2021/08/31 07:16:07;;;;;;;7.22;5.65;;;;;;;18.86;66.31;101039.13;6223626;23;20067;-84
2021/08/31 07:18:34;;;;;;;8.60;5.53;;;;;;;18.71;68.36;101044.72;6227524;23;20025;-82
2021/08/31 07:21:01;;;;;;;7.40;6.03;;;;;;;18.60;67.15;101041.91;6224500;23;20047;-82
2021/08/31 07:23:27;;;;;;;8.45;6.25;;;;;;;18.45;67.33;101041.97;6200125;23;20103;-83
2021/08/31 07:25:55;;;;;;;6.65;5.32;;;;;;;18.45;68.56;101044.66;6197150;23;20051;-82
2021/08/31 07:28:22;;;;;;;8.05;5.57;;;;;;;18.44;66.96;101045.63;6219798;23;20103;-82
2021/08/31 07:30:49;;;;;;;10.45;6.13;;;;;;;18.30;68.81;101045.72;6219425;23;20074;-84
2021/08/31 07:33:15;;;;;;;7.88;5.22;;;;;;;18.40;68.04;101044.13;6221622;23;20080;-84
2021/08/31 07:35:44;;;;;;;9.77;6.00;;;;;;;18.64;68.84;101049.63;6197478;23;20028;-83
2021/08/31 07:38:10;;;;;;;9.52;5.55;;;;;;;18.86;64.78;101043.63;6221854;23;20076;-84
2021/08/31 07:40:37;;;;;;;7.75;5.20;;;;;;;18.86;65.74;101052.53;6222973;23;20073;-83
2021/08/31 07:43:06;;;;;;;7.40;4.90;;;;;;;18.84;64.44;101061.66;6228165;23;20143;-82
2021/08/31 07:45:37;;;;;;;9.63;5.45;;;;;;;18.74;65.01;101058.75;6211220;23;20035;-83
2021/08/31 07:48:05;;;;;;;6.47;4.90;;;;;;;18.76;63.90;101058.63;6233133;23;20021;-84
2021/08/31 07:50:32;;;;;;;7.60;5.28;;;;;;;18.75;63.93;101060.47;6232104;23;20044;-83
2021/08/31 07:52:59;;;;;;;8.23;5.45;;;;;;;18.81;63.75;101061.88;6233500;23;20120;-85
2021/08/31 07:55:26;;;;;;;6.35;4.88;;;;;;;18.88;62.89;101073.91;6224354;23;20099;-85
2021/08/31 07:57:53;;;;;;;7.20;4.80;;;;;;;18.86;61.96;101067.78;6201442;23;20048;-84
2021/08/31 08:00:24;;;;;;;6.55;4.72;;;;;;;18.87;62.64;101066.81;6232195;23;20028;-84
2021/08/31 08:02:51;;;;;;;5.82;4.80;;;;;;;18.95;63.12;101072.47;6207020;23;20020;-83
2021/08/31 08:05:18;;;;;;;5.32;4.47;;;;;;;19.10;61.92;101074.06;6221706;23;20044;-84
2021/08/31 08:07:45;;;;;;;8.75;5.30;;;;;;;19.13;61.02;101055.06;6221783;23;20039;-84
2021/08/31 08:10:12;;;;;;;6.70;5.00;;;;;;;19.20;61.57;101067.06;6220981;23;20029;-84
2021/08/31 08:12:42;;;;;;;7.60;5.22;;;;;;;19.33;61.28;101063.50;6222165;23;20016;-85
2021/08/31 08:15:09;;;;;;;7.53;4.70;;;;;;;19.42;60.78;101073.56;6221458;23;20021;-85
2021/08/31 08:17:36;;;;;;;6.55;4.78;;;;;;;19.43;60.92;101075.28;6221301;23;20387;-85
2021/08/31 08:20:03;;;;;;;6.80;4.65;;;;;;;19.44;61.60;101077.84;6221722;23;20023;-85
2021/08/31 08:22:30;;;;;;;6.55;4.57;;;;;;;19.43;61.44;101073.44;6221939;23;20115;-85
2021/08/31 08:24:56;;;;;;;7.05;4.65;;;;;;;19.39;60.92;101080.00;6221641;23;20033;-84
2021/08/31 08:27:23;;;;;;;8.30;5.78;;;;;;;19.42;61.45;101087.84;6220351;23;20103;-85
2021/08/31 08:29:50;;;;;;;9.98;4.40;;;;;;;19.49;60.79;101086.47;6219341;23;20048;-84
2021/08/31 08:32:24;;;;;;;8.13;4.85;;;;;;;19.40;61.75;101081.72;6220495;22;20016;-85
2021/08/31 08:34:51;;;;;;;8.75;5.28;;;;;;;19.39;61.18;101089.91;6221198;23;20435;-84
2021/08/31 08:37:22;;;;;;;5.65;4.63;;;;;;;19.24;61.07;101079.28;6220400;23;20044;-84
2021/08/31 08:39:49;;;;;;;5.57;4.72;;;;;;;19.31;61.21;101086.91;6220840;23;20056;-85
2021/08/31 08:42:16;;;;;;;5.38;4.43;;;;;;;19.42;61.03;101087.84;6220834;23;20100;-84
2021/08/31 08:44:42;;;;;;;9.85;6.32;;;;;;;19.63;61.19;101081.91;6171104;23;20095;-84
2021/08/31 08:47:11;;;;;;;7.65;5.30;;;;;;;19.79;59.23;101083.34;6221659;23;20040;-85
2021/08/31 08:49:38;;;;;;;6.07;4.90;;;;;;;19.83;59.20;101066.00;6222013;23;20080;-84
2021/08/31 08:52:05;;;;;;;8.40;5.22;;;;;;;19.87;59.23;101080.06;6224486;23;20545;-83
2021/08/31 08:54:32;;;;;;;6.95;5.03;;;;;;;19.88;59.94;101092.53;6224521;23;20349;-83
2021/08/31 08:57:00;;;;;;;7.43;4.97;;;;;;;19.90;58.58;101080.72;6223876;23;20698;-84
2021/08/31 08:59:27;;;;;;;5.88;4.80;;;;;;;19.85;59.87;101088.25;6223109;23;20072;-85
2021/08/31 09:01:55;;;;;;;9.85;5.45;;;;;;;20.09;58.99;101098.16;6225043;23;20021;-84
2021/08/31 09:04:45;;;;;;;5.82;4.80;;;;;;;20.30;59.22;101088.47;6197526;23;20051;-85
2021/08/31 09:07:21;;;;;;;5.97;4.57;;;;;;;20.51;57.88;101089.50;6224116;23;20382;-85
2021/08/31 09:10:12;;;;;;;5.13;4.50;;;;;;;20.64;56.65;101092.97;6224147;23;20009;-85
2021/08/31 09:12:41;;;;;;;7.18;4.55;;;;;;;20.48;56.38;101092.44;6238202;23;20030;-84
2021/08/31 09:15:41;;;;;;;8.85;5.00;;;;;;;20.35;57.91;101086.25;6239263;23;20028;-84
2021/08/31 09:18:12;;;;;;;6.18;4.70;;;;;;;20.33;57.69;101098.97;6155916;23;20016;-85
2021/08/31 09:20:57;;;;;;;6.40;4.70;;;;;;;20.26;58.05;101095.03;6223132;23;20660;-84
2021/08/31 09:23:30;;;;;;;6.07;4.47;;;;;;;20.33;56.61;101101.66;6219730;23;20044;-85
2021/08/31 09:26:09;;;;;;;7.38;4.72;;;;;;;20.30;57.51;101094.66;6218866;23;20091;-84
2021/08/31 09:28:41;;;;;;;6.70;4.68;;;;;;;20.38;58.37;101095.97;6222884;23;20147;-84
2021/08/31 09:31:09;;;;;;;5.78;4.35;;;;;;;20.41;57.31;101099.28;6222272;23;20028;-84
2021/08/31 09:33:38;;;;;;;5.68;4.45;;;;;;;20.48;57.20;101084.38;6223033;23;20044;-85
2021/08/31 09:36:15;;;;;;;6.68;4.90;;;;;;;20.46;56.30;101089.00;6223353;23;20073;-85
2021/08/31 09:38:47;;;;;;;7.32;4.75;;;;;;;20.37;57.31;101089.72;6223303;23;20107;-85
2021/08/31 09:41:41;;;;;;;5.45;4.82;;;;;;;20.62;58.08;101088.66;6222886;23;20476;-85
2021/08/31 09:44:22;;;;;;;6.13;4.80;;;;;;;20.69;56.11;101089.06;6197423;23;20119;-83
2021/08/31 09:46:59;;;;;;;6.20;4.20;;;;;;;20.73;55.48;101086.03;6223149;23;20047;-85
2021/08/31 09:49:41;;;;;;;4.90;4.28;;;;;;;20.76;56.50;101087.63;6222454;23;20108;-85
2021/08/31 09:52:14;;;;;;;7.13;4.28;;;;;;;20.79;56.60;101088.22;6221876;23;20072;-85
2021/08/31 09:54:46;;;;;;;5.47;4.40;;;;;;;20.89;57.07;101099.13;6221493;23;20421;-85
2021/08/31 09:57:25;;;;;;;4.85;4.35;;;;;;;21.09;56.74;101093.03;6223336;23;20063;-84
2021/08/31 09:59:52;;;;;;;7.95;4.72;;;;;;;21.18;55.07;101086.88;6196912;23;20020;-84
2021/08/31 10:02:19;;;;;;;5.28;4.43;;;;;;;21.17;54.38;101087.88;6198439;23;20028;-85
2021/08/31 10:04:46;;;;;;;5.25;4.30;;;;;;;21.05;54.74;101096.06;6200643;23;20021;-85
2021/08/31 10:07:13;;;;;;;6.15;4.78;;;;;;;21.01;55.22;101085.53;6226952;23;20097;-85
2021/08/31 10:09:40;;;;;;;4.75;4.10;;;;;;;21.03;54.61;101088.13;6228504;23;20072;-83
2021/08/31 10:12:08;;;;;;;6.90;4.45;;;;;;;21.12;54.82;101091.91;6241729;23;20004;-85
2021/08/31 10:14:43;;;;;;;5.57;4.68;;;;;;;21.14;53.49;101095.31;6241368;23;20012;-83
2021/08/31 10:17:14;;;;;;;5.93;4.70;;;;;;;21.26;54.37;101095.22;6226719;23;20163;-83
2021/08/31 10:19:43;;;;;;;6.13;4.35;;;;;;;21.32;53.67;101091.19;6221814;23;20033;-82
2021/08/31 10:22:11;;;;;;;6.45;4.72;;;;;;;21.26;52.91;101087.16;6224759;23;20025;-83
2021/08/31 10:24:42;;;;;;;5.00;4.40;;;;;;;21.30;54.28;101088.63;6223165;23;20022;-84
2021/08/31 10:27:32;;;;;;;5.28;4.43;;;;;;;21.30;54.21;101093.16;6222622;23;20024;-84
2021/08/31 10:30:14;;;;;;;8.00;4.43;;;;;;;21.13;54.68;101096.31;6221752;23;20016;-84
2021/08/31 10:32:43;;;;;;;5.25;4.32;;;;;;;21.10;55.16;101093.84;6195582;23;20367;-84
2021/08/31 10:35:42;;;;;;;5.47;4.68;;;;;;;21.13;54.93;101099.84;6222026;23;20059;-84
2021/08/31 10:38:41;;;;;;;6.80;4.90;;;;;;;21.29;55.29;101100.38;6221390;23;20072;-84
2021/08/31 10:41:34;;;;;;;6.05;4.80;;;;;;;21.47;54.23;101103.41;6222745;23;20017;-84
2021/08/31 10:44:06;;;;;;;5.97;4.75;;;;;;;21.50;54.08;101097.78;6222017;23;20084;-82
2021/08/31 10:46:59;;;;;;;5.97;4.80;;;;;;;21.41;54.70;101098.50;6223018;23;20036;-84
2021/08/31 10:49:28;;;;;;;6.45;4.75;;;;;;;21.20;54.88;101109.22;6185778;23;20382;-84
2021/08/31 10:52:02;;;;;;;8.30;4.70;;;;;;;20.98;56.07;101103.78;6222338;23;20100;-85
2021/08/31 10:54:46;;;;;;;6.32;4.72;;;;;;;20.81;56.05;101106.94;6222414;23;20021;-84
2021/08/31 10:57:37;;;;;;;7.75;4.70;;;;;;;20.79;56.26;101101.66;6223847;23;20031;-83
2021/08/31 11:00:15;;;;;;;7.50;4.63;;;;;;;20.78;56.08;101109.91;6222552;23;20036;-85
2021/08/31 11:02:46;;;;;;;6.40;5.20;;;;;;;20.80;56.69;101100.69;6222596;23;20047;-84
2021/08/31 11:05:25;;;;;;;8.68;5.10;;;;;;;20.98;56.63;101101.94;6221248;23;20036;-86
2021/08/31 11:08:01;;;;;;;5.22;4.60;;;;;;;21.23;56.28;101102.72;6220908;23;20058;-85
2021/08/31 11:10:28;;;;;;;6.63;4.75;;;;;;;21.30;55.05;101102.09;6221005;23;20100;-84
2021/08/31 11:13:11;;;;;;;6.75;4.70;;;;;;;21.35;54.79;101099.88;6222455;23;20054;-85
2021/08/31 11:15:40;;;;;;;6.13;4.57;;;;;;;21.46;54.44;101101.72;6194335;23;20024;-82
2021/08/31 11:18:11;;;;;;;5.65;4.85;;;;;;;21.54;54.81;101103.78;6221573;23;20016;-82
2021/08/31 11:20:40;;;;;;;8.23;5.38;;;;;;;21.64;54.96;101107.44;6222427;23;20032;-83
2021/08/31 11:23:19;;;;;;;5.53;4.65;;;;;;;21.64;53.98;101111.00;6222001;23;20015;-83
2021/08/31 11:25:49;;;;;;;8.48;5.20;;;;;;;21.62;53.98;101095.91;6195845;23;20020;-82
2021/08/31 11:28:28;;;;;;;5.72;5.13;;;;;;;21.65;54.22;101111.84;6225453;23;20036;-81
2021/08/31 11:31:06;;;;;;;6.13;5.25;;;;;;;21.52;54.61;101108.44;6200236;23;20097;-83
2021/08/31 11:33:40;;;;;;;5.22;4.60;;;;;;;21.27;54.11;101096.94;6234444;23;20068;-85